createdAt,value
2019-04-07T00:00:50.531Z,65.44
2019-04-07T00:03:53.199Z,65.39
2019-04-07T00:06:56.046Z,65.30
2019-04-07T00:09:58.308Z,65.17
2019-04-07T00:13:00.219Z,65.28
2019-04-07T00:16:03.555Z,65.37
2019-04-07T00:19:05.515Z,65.05
2019-04-07T00:22:07.947Z,65.28
2019-04-07T00:25:10.563Z,65.50
2019-04-07T00:28:12.850Z,65.83
2019-04-07T00:31:14.798Z,65.91
2019-04-07T00:34:17.471Z,65.74
2019-04-07T00:37:19.773Z,65.70
2019-04-07T00:40:22.400Z,65.25
2019-04-07T00:43:24.477Z,65.33
2019-04-07T00:46:26.851Z,64.86
2019-04-07T00:49:29.683Z,64.64
2019-04-07T00:52:31.749Z,64.29
2019-04-07T00:55:34.291Z,64.42
2019-04-07T00:58:36.939Z,64.72
2019-04-07T01:01:39.181Z,64.69
2019-04-07T01:04:41.907Z,64.25
2019-04-07T01:07:43.933Z,64.70
2019-04-07T01:10:45.979Z,64.41
2019-04-07T01:13:48.052Z,64.05
2019-04-07T01:16:50.662Z,64.56
2019-04-07T01:19:53.561Z,64.13
2019-04-07T01:22:56.143Z,64.68
2019-04-07T01:25:58.991Z,65.00
2019-04-07T01:29:01.449Z,65.30
2019-04-07T01:32:03.821Z,65.51
2019-04-07T01:35:07.024Z,65.58
2019-04-07T01:38:09.192Z,65.63
2019-04-07T01:41:22.796Z,65.78
2019-04-07T01:44:39.003Z,66.34
2019-04-07T01:47:45.642Z,67.49
2019-04-07T01:50:58.362Z,65.47
2019-04-07T01:54:02.140Z,65.36
2019-04-07T01:57:23.501Z,65.79
2019-04-07T02:00:30.551Z,66.21
2019-04-07T02:03:51.232Z,65.05
2019-04-07T02:06:57.973Z,65.38
2019-04-07T02:10:05.278Z,64.85
2019-04-07T02:13:15.405Z,65.02
2019-04-07T02:16:28.585Z,65.68
2019-04-07T02:19:35.942Z,65.29
2019-04-07T02:22:52.119Z,65.23
2019-04-07T02:26:02.392Z,65.41
2019-04-07T02:29:12.610Z,65.27
2019-04-07T02:32:17.400Z,65.46
2019-04-07T02:35:34.522Z,66.03
2019-04-07T02:38:56.793Z,66.44
2019-04-07T02:42:00.550Z,66.08
2019-04-07T02:45:13.795Z,65.92
2019-04-07T02:48:26.685Z,66.40
2019-04-07T02:51:36.359Z,66.93
2019-04-07T02:54:49.678Z,67.65
2019-04-07T02:58:10.295Z,67.31
2019-04-07T03:01:26.751Z,66.76
2019-04-07T03:04:41.484Z,67.24
2019-04-07T03:08:02.113Z,67.29
2019-04-07T03:11:14.801Z,66.71
2019-04-07T03:14:28.373Z,66.51
2019-04-07T03:17:32.274Z,66.71
2019-04-07T03:20:36.222Z,67.05
2019-04-07T03:23:56.724Z,67.15
2019-04-07T03:27:06.689Z,67.45
2019-04-07T03:30:11.490Z,67.55
2019-04-07T03:33:33.508Z,67.67
2019-04-07T03:37:16.930Z,67.65
2019-04-07T03:40:00.893Z,67.46
2019-04-07T03:43:14.053Z,67.47
2019-04-07T03:46:30.029Z,67.48
2019-04-07T03:49:45.754Z,67.68
2019-04-07T03:52:52.517Z,68.39
2019-04-07T03:55:56.247Z,67.80
2019-04-07T03:59:05.599Z,67.40
2019-04-07T04:02:12.559Z,66.94
2019-04-07T04:05:22.211Z,66.76
2019-04-07T04:08:32.735Z,67.18
2019-04-07T04:11:40.631Z,67.63
2019-04-07T04:15:01.613Z,67.45
2019-04-07T04:18:03.847Z,67.23
2019-04-07T04:21:06.975Z,66.82
2019-04-07T04:24:09.285Z,67.10
2019-04-07T04:27:12.723Z,66.17
2019-04-07T04:30:14.927Z,66.15
2019-04-07T04:33:17.861Z,66.17
2019-04-07T04:36:20.027Z,66.25
2019-04-07T04:39:22.887Z,66.81
2019-04-07T04:42:25.340Z,66.46
2019-04-07T04:45:27.581Z,66.28
2019-04-07T04:48:30.000Z,65.99
2019-04-07T04:51:35.456Z,65.75
2019-04-07T04:54:36.240Z,65.68
2019-04-07T04:57:38.276Z,64.97
2019-04-07T05:00:41.294Z,64.29
2019-04-07T05:03:43.649Z,64.26
2019-04-07T05:06:46.488Z,63.43
2019-04-07T05:09:52.874Z,61.74
2019-04-07T05:12:52.619Z,60.06
2019-04-07T05:15:54.715Z,58.42
2019-04-07T05:18:57.328Z,57.17
2019-04-07T05:21:59.862Z,55.74
2019-04-07T05:25:02.293Z,54.28
2019-04-07T05:28:04.674Z,52.94
2019-04-07T05:31:07.329Z,52.17
2019-04-07T05:34:09.383Z,51.60
2019-04-07T05:37:11.468Z,50.92
2019-04-07T05:40:14.032Z,49.22
2019-04-07T05:43:16.200Z,49.83
2019-04-07T05:46:18.204Z,49.08
2019-04-07T05:49:22.574Z,48.63
2019-04-07T05:52:24.115Z,47.74
2019-04-07T05:55:27.280Z,46.52
2019-04-07T05:58:29.471Z,45.25
2019-04-07T06:01:32.086Z,44.28
2019-04-07T06:04:34.801Z,43.29
2019-04-07T06:07:37.806Z,41.79
2019-04-07T06:10:40.343Z,41.23
2019-04-07T06:13:44.644Z,42.08
2019-04-07T06:16:46.815Z,41.32
2019-04-07T06:19:51.239Z,41.14
2019-04-07T06:22:54.454Z,40.37
2019-04-07T06:25:58.964Z,40.29
2019-04-07T06:29:00.711Z,39.68
2019-04-07T06:32:05.128Z,39.17
2019-04-07T06:35:07.422Z,38.48
2019-04-07T06:38:09.508Z,38.27
2019-04-07T06:41:11.541Z,37.78
2019-04-07T06:44:18.337Z,37.02
2019-04-07T06:47:22.180Z,36.88
2019-04-07T06:50:49.310Z,36.79
2019-04-07T06:53:57.891Z,36.70
2019-04-07T06:57:05.016Z,36.62
2019-04-07T07:00:14.001Z,35.34
2019-04-07T07:03:23.912Z,35.31
2019-04-07T07:06:47.095Z,35.10
2019-04-07T07:10:06.957Z,34.32
2019-04-07T07:13:26.518Z,34.32
2019-04-07T07:16:22.832Z,34.14
2019-04-07T07:19:45.118Z,34.21
2019-04-07T07:22:49.606Z,34.21
2019-04-07T07:25:52.027Z,33.28
2019-04-07T07:28:54.355Z,33.19
2019-04-07T07:32:02.480Z,33.34
2019-04-07T07:35:00.712Z,33.52
2019-04-07T07:38:03.996Z,33.24
2019-04-07T07:41:06.359Z,32.48
2019-04-07T07:44:09.733Z,32.55
2019-04-07T07:47:11.982Z,32.82
2019-04-07T07:50:13.932Z,32.35
2019-04-07T07:53:15.926Z,32.20
2019-04-07T07:56:18.404Z,32.51
2019-04-07T07:59:20.364Z,32.62
2019-04-07T08:02:22.350Z,32.73
2019-04-07T08:05:24.815Z,32.31
2019-04-07T08:08:27.651Z,32.53
2019-04-07T08:11:32.911Z,32.25
2019-04-07T08:14:33.647Z,32.04
2019-04-07T08:17:35.720Z,31.95
2019-04-07T08:20:38.458Z,32.90
2019-04-07T08:23:43.031Z,32.75
2019-04-07T08:26:44.813Z,33.80
2019-04-07T08:29:47.426Z,32.89
2019-04-07T08:32:50.068Z,33.81
2019-04-07T08:35:54.857Z,34.23
2019-04-07T08:38:57.145Z,34.15
2019-04-07T08:41:59.456Z,34.31
2019-04-07T08:45:01.664Z,34.25
2019-04-07T08:48:05.149Z,34.23
2019-04-07T08:51:08.493Z,34.58
2019-04-07T08:54:11.727Z,35.00
2019-04-07T08:57:15.276Z,34.61
2019-04-07T09:00:20.279Z,34.71
2019-04-07T09:03:23.174Z,35.17
2019-04-07T09:06:28.560Z,34.97
2019-04-07T09:09:34.029Z,35.34
2019-04-07T09:12:35.030Z,35.60
2019-04-07T09:15:43.071Z,36.37
2019-04-07T09:19:03.833Z,35.69
2019-04-07T09:22:06.290Z,37.37
2019-04-07T09:25:19.362Z,36.69
2019-04-07T09:28:29.834Z,35.62
2019-04-07T09:31:39.941Z,35.90
2019-04-07T09:34:50.458Z,35.99
2019-04-07T09:38:09.844Z,36.15
2019-04-07T09:41:27.385Z,36.36
2019-04-07T09:44:33.999Z,37.37
2019-04-07T09:47:38.024Z,36.92
2019-04-07T09:50:45.035Z,37.47
2019-04-07T09:53:52.222Z,37.86
2019-04-07T09:56:56.309Z,38.25
2019-04-07T10:00:16.081Z,38.74
2019-04-07T10:03:38.094Z,38.27
2019-04-07T10:06:42.190Z,37.80
2019-04-07T10:10:05.462Z,37.94
2019-04-07T10:12:58.399Z,38.38
2019-04-07T10:16:14.862Z,37.61
2019-04-07T10:19:36.299Z,36.51
2019-04-07T10:22:42.947Z,37.11
2019-04-07T10:25:56.156Z,36.88
2019-04-07T10:29:18.706Z,36.82
2019-04-07T10:32:34.624Z,36.43
2019-04-07T10:35:47.804Z,36.52
2019-04-07T10:38:55.324Z,35.54
2019-04-07T10:42:16.843Z,37.63
2019-04-07T10:45:29.884Z,37.58
2019-04-07T10:48:48.753Z,36.92
2019-04-07T10:52:07.799Z,38.20
2019-04-07T10:55:17.794Z,36.89
2019-04-07T10:58:39.246Z,36.80
2019-04-07T11:01:46.128Z,36.49
2019-04-07T11:04:52.873Z,36.50
2019-04-07T11:07:56.998Z,36.26
2019-04-07T11:11:04.554Z,35.95
2019-04-07T11:14:11.316Z,36.06
2019-04-07T11:17:21.564Z,34.93
2019-04-07T11:20:29.957Z,35.27
2019-04-07T11:23:50.434Z,35.56
2019-04-07T11:27:03.439Z,35.04
2019-04-07T11:30:08.177Z,34.61
2019-04-07T11:33:21.034Z,34.81
2019-04-07T11:36:31.041Z,34.45
2019-04-07T11:39:50.029Z,34.14
2019-04-07T11:42:56.751Z,34.26
2019-04-07T11:46:04.549Z,34.44
2019-04-07T11:49:13.374Z,34.54
2019-04-07T11:52:17.988Z,35.09
2019-04-07T11:55:31.359Z,34.77
2019-04-07T11:58:54.122Z,34.20
2019-04-07T12:02:01.911Z,33.41
2019-04-07T12:05:25.111Z,33.72
2019-04-07T12:08:45.718Z,34.23
2019-04-07T12:11:52.669Z,34.99
2019-04-07T12:14:56.653Z,35.31
2019-04-07T12:18:00.568Z,35.21
2019-04-07T12:21:07.207Z,34.71
2019-04-07T12:24:10.657Z,34.71
2019-04-07T12:27:17.287Z,35.17
2019-04-07T12:30:25.031Z,35.24
2019-04-07T12:33:32.809Z,35.30
2019-04-07T12:36:52.002Z,35.84
2019-04-07T12:39:55.859Z,36.30
2019-04-07T12:43:15.525Z,36.30
2019-04-07T12:46:36.535Z,35.51
2019-04-07T12:49:46.936Z,36.19
2019-04-07T12:53:07.998Z,36.37
2019-04-07T12:56:15.673Z,36.80
2019-04-07T12:59:25.572Z,37.21
2019-04-07T13:02:36.043Z,36.63
2019-04-07T13:05:42.770Z,37.17
2019-04-07T13:08:46.845Z,36.60
2019-04-07T13:12:05.900Z,35.82
2019-04-07T13:15:16.071Z,35.93
2019-04-07T13:18:19.813Z,35.93
2019-04-07T13:21:39.234Z,35.56
2019-04-07T13:25:00.223Z,35.99
2019-04-07T13:28:04.231Z,35.57
2019-04-07T13:31:17.863Z,36.78
2019-04-07T13:34:34.144Z,36.45
2019-04-07T13:37:38.390Z,35.82
2019-04-07T13:41:00.591Z,35.15
2019-04-07T13:44:07.747Z,35.79
2019-04-07T13:47:24.115Z,35.28
2019-04-07T13:50:44.938Z,35.60
2019-04-07T13:54:05.528Z,35.38
2019-04-07T13:57:26.395Z,34.94
2019-04-07T14:00:48.600Z,36.37
2019-04-07T14:03:56.517Z,36.52
2019-04-07T14:07:16.954Z,36.39
2019-04-07T14:10:37.344Z,35.76
2019-04-07T14:13:44.775Z,35.76
2019-04-07T14:17:07.328Z,35.98
2019-04-07T14:20:24.665Z,35.98
2019-04-07T14:23:28.694Z,36.10
2019-04-07T14:26:44.563Z,36.82
2019-04-07T14:29:57.682Z,36.32
2019-04-07T14:33:18.106Z,37.00
2019-04-07T14:36:21.875Z,37.09
2019-04-07T14:39:43.387Z,37.02
2019-04-07T14:42:47.444Z,36.81
2019-04-07T14:45:57.953Z,36.91
2019-04-07T14:49:13.461Z,36.77
2019-04-07T14:52:16.948Z,36.97
2019-04-07T14:55:20.757Z,36.88
2019-04-07T14:58:24.732Z,36.99
2019-04-07T15:01:34.822Z,38.09
2019-04-07T15:04:41.928Z,38.90
2019-04-07T15:07:57.863Z,38.97
2019-04-07T15:11:03.306Z,38.55
2019-04-07T15:14:06.166Z,38.04
2019-04-07T15:17:09.457Z,39.58
2019-04-07T15:20:14.379Z,38.28
2019-04-07T15:23:16.519Z,39.64
2019-04-07T15:26:19.307Z,39.52
2019-04-07T15:29:22.114Z,39.30
2019-04-07T15:32:28.071Z,38.58
2019-04-07T15:35:28.357Z,37.91
2019-04-07T15:38:31.271Z,37.73
2019-04-07T15:41:33.714Z,37.61
2019-04-07T15:44:37.175Z,38.67
2019-04-07T15:47:40.438Z,38.82
2019-04-07T15:50:42.752Z,38.69
2019-04-07T15:53:50.296Z,39.36
2019-04-07T15:56:50.249Z,39.09
2019-04-07T15:59:52.601Z,38.80
2019-04-07T16:02:54.895Z,38.93
2019-04-07T16:05:58.068Z,38.48
2019-04-07T16:09:01.159Z,38.98
2019-04-07T16:12:06.394Z,39.15
2019-04-07T16:15:09.743Z,38.80
2019-04-07T16:18:12.671Z,38.96
2019-04-07T16:21:14.716Z,38.83
2019-04-07T16:24:16.775Z,39.54
2019-04-07T16:27:19.293Z,40.27
2019-04-07T16:30:23.232Z,41.51
2019-04-07T16:33:26.155Z,42.20
2019-04-07T16:36:28.283Z,41.23
2019-04-07T16:39:33.502Z,40.62
2019-04-07T16:42:34.244Z,40.60
2019-04-07T16:45:36.713Z,41.10
2019-04-07T16:48:40.242Z,40.98
2019-04-07T16:51:42.786Z,40.89
2019-04-07T16:54:45.789Z,41.09
2019-04-07T16:57:48.236Z,41.27
2019-04-07T17:00:50.347Z,41.29
2019-04-07T17:03:52.410Z,41.20
2019-04-07T17:07:03.276Z,41.34
2019-04-07T17:10:02.421Z,41.53
2019-04-07T17:13:16.961Z,41.45
2019-04-07T17:16:12.199Z,41.55
2019-04-07T17:19:16.174Z,41.81
2019-04-07T17:22:19.764Z,41.91
2019-04-07T17:25:22.804Z,42.17
2019-04-07T17:28:25.063Z,42.46
2019-04-07T17:31:29.991Z,42.52
2019-04-07T17:34:32.552Z,42.62
2019-04-07T17:37:37.401Z,42.70
2019-04-07T17:40:47.005Z,42.77
2019-04-07T17:43:59.039Z,43.12
2019-04-07T17:47:04.149Z,43.39
2019-04-07T17:50:16.773Z,43.48
2019-04-07T17:53:21.264Z,43.59
2019-04-07T17:56:42.844Z,43.99
2019-04-07T17:59:52.082Z,44.52
2019-04-07T18:03:15.332Z,44.64
2019-04-07T18:06:19.911Z,44.82
2019-04-07T18:09:24.802Z,44.91
2019-04-07T18:12:34.700Z,45.00
2019-04-07T18:15:43.404Z,45.04
2019-04-07T18:18:59.167Z,45.11
2019-04-07T18:22:02.390Z,45.25
2019-04-07T18:25:17.369Z,45.40
2019-04-07T18:28:25.960Z,45.52
2019-04-07T18:31:45.468Z,45.72
2019-04-07T18:34:49.661Z,46.01
2019-04-07T18:38:11.185Z,46.10
2019-04-07T18:41:20.638Z,46.21
2019-04-07T18:44:41.022Z,46.28
2019-04-07T18:47:59.934Z,46.54
2019-04-07T18:51:19.902Z,46.67
2019-04-07T18:54:25.016Z,46.92
2019-04-07T18:57:46.666Z,47.08
2019-04-07T19:01:08.778Z,47.29
2019-04-07T19:04:30.432Z,47.55
2019-04-07T19:07:37.939Z,47.83
2019-04-07T19:10:42.527Z,47.95
2019-04-07T19:13:59.455Z,48.12
2019-04-07T19:17:00.824Z,48.23
2019-04-07T19:20:12.992Z,48.38
2019-04-07T19:23:24.224Z,48.52
2019-04-07T19:26:41.022Z,48.60
2019-04-07T19:29:57.448Z,48.60
2019-04-07T19:33:02.839Z,48.59
2019-04-07T19:36:18.052Z,48.64
2019-04-07T19:39:32.864Z,48.74
2019-04-07T19:42:48.166Z,48.83
2019-04-07T19:46:07.107Z,48.89
2019-04-07T19:49:21.736Z,48.94
2019-04-07T19:52:27.753Z,49.27
2019-04-07T19:55:32.464Z,49.80
2019-04-07T19:58:55.711Z,50.21
2019-04-07T20:02:11.864Z,50.75
2019-04-07T20:05:21.588Z,50.95
2019-04-07T20:08:44.101Z,51.42
2019-04-07T20:11:51.438Z,51.71
2019-04-07T20:15:08.836Z,51.98
2019-04-07T20:18:28.335Z,52.19
2019-04-07T20:21:53.244Z,52.20
2019-04-07T20:25:15.986Z,52.76
2019-04-07T20:28:35.847Z,53.32
2019-04-07T20:31:53.692Z,53.53
2019-04-07T20:35:01.282Z,53.49
2019-04-07T20:38:07.787Z,53.33
2019-04-07T20:41:26.761Z,53.34
2019-04-07T20:44:58.507Z,53.80
2019-04-07T20:48:08.079Z,54.04
2019-04-07T20:51:17.385Z,53.81
2019-04-07T20:54:31.501Z,53.69
2019-04-07T20:57:48.203Z,53.64
2019-04-07T21:01:04.637Z,54.05
2019-04-07T21:04:19.929Z,54.11
2019-04-07T21:07:42.885Z,53.97
2019-04-07T21:10:47.285Z,54.00
2019-04-07T21:13:54.566Z,54.07
2019-04-07T21:17:15.470Z,54.17
2019-04-07T21:20:20.097Z,54.04
2019-04-07T21:23:31.610Z,54.10
2019-04-07T21:26:35.980Z,54.11
2019-04-07T21:29:57.988Z,54.39
2019-04-07T21:33:11.163Z,54.45
2019-04-07T21:36:17.931Z,54.79
2019-04-07T21:39:34.399Z,54.76
2019-04-07T21:42:41.252Z,54.88
2019-04-07T21:45:53.343Z,55.27
2019-04-07T21:49:13.854Z,55.44
2019-04-07T21:52:23.056Z,55.61
2019-04-07T21:55:26.535Z,55.66
2019-04-07T21:58:34.333Z,55.66
2019-04-07T22:01:44.077Z,55.92
2019-04-07T22:05:00.764Z,55.98
2019-04-07T22:08:10.505Z,56.10
2019-04-07T22:11:09.264Z,56.23
2019-04-07T22:14:14.669Z,56.37
2019-04-07T22:17:16.931Z,56.53
2019-04-07T22:20:20.382Z,56.62
2019-04-07T22:23:23.026Z,56.76
2019-04-07T22:26:24.955Z,56.86
2019-04-07T22:29:26.890Z,57.05
2019-04-07T22:32:28.943Z,57.02
2019-04-07T22:35:30.845Z,57.01
2019-04-07T22:38:33.621Z,56.87
2019-04-07T22:41:36.976Z,57.00
2019-04-07T22:44:39.841Z,57.23
2019-04-07T22:47:41.887Z,57.34
2019-04-07T22:50:43.929Z,58.39
2019-04-07T22:53:45.902Z,58.50
2019-04-07T22:56:48.622Z,57.64
2019-04-07T22:59:50.744Z,57.88
2019-04-07T23:02:52.779Z,57.88
2019-04-07T23:05:55.484Z,57.93
2019-04-07T23:08:57.516Z,58.07
2019-04-07T23:12:01.738Z,58.22
2019-04-07T23:15:06.350Z,58.23
2019-04-07T23:18:08.267Z,58.48
2019-04-07T23:21:10.182Z,58.47
2019-04-07T23:24:12.928Z,57.15
2019-04-07T23:27:15.341Z,58.02
2019-04-07T23:30:21.447Z,58.57
2019-04-07T23:33:23.403Z,58.41
2019-04-07T23:36:26.356Z,58.52
2019-04-07T23:39:29.257Z,58.67
2019-04-07T23:42:31.549Z,59.75
2019-04-07T23:45:33.741Z,59.77
2019-04-07T23:48:35.792Z,60.34
2019-04-07T23:51:37.859Z,60.20
2019-04-07T23:54:39.828Z,60.13
2019-04-07T23:57:42.358Z,59.84
